createdAt,value
2019-01-15T00:01:51.331Z,6.10
2019-01-15T00:04:20.771Z,6.00
2019-01-15T00:06:49.306Z,6.00
2019-01-15T00:09:17.989Z,6.00
2019-01-15T00:11:46.629Z,6.00
2019-01-15T00:14:15.424Z,6.00
2019-01-15T00:16:44.002Z,6.00
2019-01-15T00:19:12.513Z,6.00
2019-01-15T00:21:41.061Z,6.10
2019-01-15T00:24:09.466Z,6.20
2019-01-15T00:26:37.845Z,6.30
2019-01-15T00:29:06.690Z,6.40
2019-01-15T00:31:35.106Z,6.50
2019-01-15T00:34:08.006Z,6.50
2019-01-15T00:36:36.516Z,6.50
2019-01-15T00:39:07.275Z,6.50
2019-01-15T00:41:35.681Z,6.50
2019-01-15T00:44:04.278Z,6.30
2019-01-15T00:46:32.657Z,6.30
2019-01-15T00:49:01.142Z,6.10
2019-01-15T00:51:29.466Z,6.00
2019-01-15T00:53:57.941Z,5.80
2019-01-15T00:56:26.364Z,5.80
2019-01-15T00:58:54.895Z,5.70
2019-01-15T01:01:23.416Z,5.60
2019-01-15T01:03:51.845Z,5.50
2019-01-15T01:06:20.466Z,5.50
2019-01-15T01:08:49.405Z,5.50
2019-01-15T01:11:18.264Z,5.30
2019-01-15T01:13:46.738Z,5.30
2019-01-15T01:16:15.126Z,5.30
2019-01-15T01:18:43.586Z,5.20
2019-01-15T01:21:12.250Z,5.20
2019-01-15T01:23:40.650Z,5.20
2019-01-15T01:26:09.039Z,5.20
2019-01-15T01:28:37.446Z,5.20
2019-01-15T01:31:05.929Z,5.20
2019-01-15T01:33:34.448Z,5.20
2019-01-15T01:36:03.281Z,5.20
2019-01-15T01:38:31.714Z,5.20
2019-01-15T01:41:00.521Z,5.20
2019-01-15T01:43:29.960Z,5.30
2019-01-15T01:45:58.501Z,5.30
2019-01-15T01:48:26.878Z,5.30
2019-01-15T01:51:10.708Z,5.40
2019-01-15T01:53:39.089Z,5.40
2019-01-15T01:56:07.566Z,5.30
2019-01-15T01:58:36.455Z,5.20
2019-01-15T02:01:05.057Z,5.20
2019-01-15T02:03:33.617Z,5.20
2019-01-15T02:06:01.942Z,5.30
2019-01-15T02:08:30.510Z,5.30
2019-01-15T02:10:59.402Z,5.40
2019-01-15T02:13:27.914Z,5.40
2019-01-15T02:15:56.329Z,5.40
2019-01-15T02:18:24.762Z,5.30
2019-01-15T02:20:53.298Z,5.30
2019-01-15T02:23:22.266Z,5.20
2019-01-15T02:25:50.699Z,5.20
2019-01-15T02:28:19.289Z,5.20
2019-01-15T02:30:47.609Z,5.20
2019-01-15T02:33:16.077Z,5.20
2019-01-15T02:35:44.398Z,5.10
2019-01-15T02:38:12.985Z,5.10
2019-01-15T02:40:42.185Z,5.10
2019-01-15T02:43:10.741Z,5.00
2019-01-15T02:45:39.139Z,5.00
2019-01-15T02:48:07.824Z,5.00
2019-01-15T02:50:36.261Z,5.00
2019-01-15T02:53:04.799Z,5.00
2019-01-15T02:55:33.320Z,5.00
2019-01-15T02:58:01.813Z,4.90
2019-01-15T03:00:30.495Z,4.90
2019-01-15T03:02:58.813Z,4.90
2019-01-15T03:05:29.310Z,4.90
2019-01-15T03:07:57.846Z,4.90
2019-01-15T03:10:26.465Z,4.90
2019-01-15T03:12:57.996Z,4.90
2019-01-15T03:15:26.617Z,4.90
2019-01-15T03:17:55.031Z,4.90
2019-01-15T03:20:23.954Z,4.90
2019-01-15T03:22:52.503Z,4.80
2019-01-15T03:25:21.081Z,4.80
2019-01-15T03:27:49.606Z,4.90
2019-01-15T03:30:20.790Z,4.90
2019-01-15T03:32:49.748Z,5.00
2019-01-15T03:35:18.792Z,5.00
2019-01-15T03:37:47.714Z,5.00
2019-01-15T03:40:19.321Z,5.10
2019-01-15T03:42:48.313Z,5.10
2019-01-15T03:45:17.257Z,5.20
2019-01-15T03:47:46.269Z,5.20
2019-01-15T03:50:15.087Z,5.10
2019-01-15T03:52:43.937Z,5.20
2019-01-15T03:55:13.949Z,5.10
2019-01-15T03:57:43.670Z,5.10
2019-01-15T04:00:20.905Z,5.10
2019-01-15T04:02:51.138Z,5.10
2019-01-15T04:05:19.758Z,5.10
2019-01-15T04:07:50.600Z,5.10
2019-01-15T04:10:20.345Z,5.10
2019-01-15T04:12:48.678Z,5.10
2019-01-15T04:15:17.133Z,5.10
2019-01-15T04:17:45.686Z,5.00
2019-01-15T04:20:14.690Z,4.90
2019-01-15T04:22:43.242Z,4.90
2019-01-15T04:25:13.742Z,4.90
2019-01-15T04:27:42.326Z,4.80
2019-01-15T04:30:16.409Z,4.90
2019-01-15T04:32:45.101Z,4.90
2019-01-15T04:35:13.825Z,4.90
2019-01-15T04:37:42.447Z,4.80
2019-01-15T04:40:16.360Z,4.80
2019-01-15T04:42:45.130Z,4.80
2019-01-15T04:45:15.078Z,4.70
2019-01-15T04:47:43.583Z,4.70
2019-01-15T04:50:12.811Z,4.70
2019-01-15T04:52:43.349Z,4.60
2019-01-15T04:55:12.173Z,4.60
2019-01-15T04:57:40.780Z,4.60
2019-01-15T05:00:12.829Z,4.50
2019-01-15T05:02:42.329Z,4.50
2019-01-15T05:05:10.937Z,4.50
2019-01-15T05:07:39.377Z,4.50
2019-01-15T05:10:09.325Z,4.50
2019-01-15T05:12:37.930Z,4.40
2019-01-15T05:15:13.560Z,4.40
2019-01-15T05:17:42.170Z,4.30
2019-01-15T05:20:12.053Z,4.40
2019-01-15T05:22:40.582Z,4.40
2019-01-15T05:25:12.634Z,4.40
2019-01-15T05:27:42.278Z,4.50
2019-01-15T05:30:16.750Z,4.50
2019-01-15T05:32:45.662Z,4.50
2019-01-15T05:35:14.260Z,4.40
2019-01-15T05:37:42.705Z,4.40
2019-01-15T05:40:11.877Z,4.30
2019-01-15T05:42:40.465Z,4.30
2019-01-15T05:45:12.794Z,4.30
2019-01-15T05:47:41.690Z,4.30
2019-01-15T05:50:13.299Z,4.30
2019-01-15T05:52:41.824Z,4.20
2019-01-15T05:55:10.442Z,4.20
2019-01-15T05:57:38.818Z,4.20
2019-01-15T06:00:08.410Z,4.20
2019-01-15T06:02:36.730Z,4.10
2019-01-15T06:05:06.074Z,4.10
2019-01-15T06:07:35.891Z,4.10
2019-01-15T06:10:06.151Z,4.10
2019-01-15T06:12:34.949Z,4.10
2019-01-15T06:15:05.124Z,4.10
2019-01-15T06:17:33.450Z,4.10
2019-01-15T06:20:02.385Z,4.10
2019-01-15T06:22:30.909Z,4.10
2019-01-15T06:25:01.775Z,4.10
2019-01-15T06:27:30.111Z,4.20
2019-01-15T06:29:58.577Z,4.30
2019-01-15T06:32:26.914Z,4.30
2019-01-15T06:34:55.243Z,4.40
2019-01-15T06:37:23.646Z,4.40
2019-01-15T06:39:51.962Z,4.40
2019-01-15T06:42:20.389Z,4.40
2019-01-15T06:44:48.801Z,4.40
2019-01-15T06:47:17.190Z,4.50
2019-01-15T06:49:45.601Z,4.60
2019-01-15T06:52:14.009Z,4.70
2019-01-15T06:54:42.413Z,4.90
2019-01-15T06:57:10.827Z,5.00
2019-01-15T06:59:39.250Z,5.10
2019-01-15T07:02:09.127Z,5.20
2019-01-15T07:04:43.663Z,5.40
2019-01-15T07:07:07.890Z,5.50
2019-01-15T07:09:36.518Z,5.80
2019-01-15T07:12:05.150Z,6.00
2019-01-15T07:14:33.770Z,6.10
2019-01-15T07:17:02.234Z,6.30
2019-01-15T07:19:30.566Z,6.50
2019-01-15T07:21:59.090Z,6.70
2019-01-15T07:24:27.510Z,6.90
2019-01-15T07:26:56.087Z,7.10
2019-01-15T07:29:24.718Z,7.30
2019-01-15T07:31:53.290Z,7.50
2019-01-15T07:34:21.905Z,7.70
2019-01-15T07:36:50.977Z,7.90
2019-01-15T07:39:19.313Z,8.20
2019-01-15T07:41:47.846Z,8.30
2019-01-15T07:44:16.209Z,8.50
2019-01-15T07:46:44.797Z,8.40
2019-01-15T07:49:13.142Z,8.30
2019-01-15T07:51:41.626Z,8.20
2019-01-15T07:54:10.717Z,8.20
2019-01-15T07:56:39.115Z,8.10
2019-01-15T07:59:07.700Z,8.10
2019-01-15T08:01:36.002Z,8.20
2019-01-15T08:04:05.781Z,8.20
2019-01-15T08:06:34.314Z,8.30
2019-01-15T08:09:04.922Z,8.30
2019-01-15T08:11:35.325Z,8.40
2019-01-15T08:14:03.866Z,8.50
2019-01-15T08:16:32.529Z,8.60
2019-01-15T08:19:00.969Z,8.80
2019-01-15T08:21:29.405Z,8.90
2019-01-15T08:23:57.814Z,9.10
2019-01-15T08:26:26.390Z,9.20
2019-01-15T08:28:54.897Z,9.30
2019-01-15T08:31:23.535Z,9.30
2019-01-15T08:33:51.995Z,9.30
2019-01-15T08:36:20.585Z,9.20
2019-01-15T08:38:48.966Z,9.30
2019-01-15T08:41:17.481Z,9.40
2019-01-15T08:43:45.801Z,9.40
2019-01-15T08:46:14.257Z,9.50
2019-01-15T08:48:43.161Z,9.60
2019-01-15T08:51:12.361Z,9.70
2019-01-15T08:53:41.498Z,9.80
2019-01-15T08:56:10.446Z,9.80
2019-01-15T08:58:38.794Z,9.90
2019-01-15T09:01:07.402Z,9.90
2019-01-15T09:03:35.834Z,9.90
2019-01-15T09:06:04.739Z,9.90
2019-01-15T09:08:34.478Z,10.00
2019-01-15T09:11:04.213Z,10.10
2019-01-15T09:13:32.805Z,10.10
2019-01-15T09:16:01.190Z,10.20
2019-01-15T09:18:30.846Z,10.20
2019-01-15T09:20:59.353Z,10.30
2019-01-15T09:23:28.605Z,10.30
2019-01-15T09:25:57.391Z,10.30
2019-01-15T09:28:25.961Z,10.40
2019-01-15T09:30:54.402Z,10.50
2019-01-15T09:33:22.732Z,10.50
2019-01-15T09:35:51.302Z,10.60
2019-01-15T09:38:19.646Z,10.50
2019-01-15T09:40:48.210Z,10.50
2019-01-15T09:43:16.637Z,10.40
2019-01-15T09:45:45.154Z,10.50
2019-01-15T09:48:16.890Z,10.40
2019-01-15T09:50:45.270Z,10.40
2019-01-15T09:53:13.866Z,10.40
2019-01-15T09:55:42.430Z,10.50
2019-01-15T09:58:11.620Z,10.60
2019-01-15T10:00:40.133Z,10.60
2019-01-15T10:03:08.522Z,10.70
2019-01-15T10:05:36.930Z,10.70
2019-01-15T10:08:05.528Z,10.80
2019-01-15T10:10:33.946Z,10.80
2019-01-15T10:13:02.494Z,10.70
2019-01-15T10:15:32.101Z,10.70
2019-01-15T10:18:00.818Z,10.70
2019-01-15T10:20:29.336Z,10.70
2019-01-15T10:22:57.927Z,10.70
2019-01-15T10:25:28.021Z,10.70
2019-01-15T10:27:57.717Z,10.60
2019-01-15T10:30:52.955Z,10.60
2019-01-15T10:33:32.617Z,10.60
2019-01-15T10:35:59.934Z,10.60
2019-01-15T10:38:31.453Z,10.60
2019-01-15T10:41:00.281Z,10.60
2019-01-15T10:43:30.585Z,10.60
2019-01-15T10:45:59.582Z,10.60
2019-01-15T10:48:28.041Z,10.60
2019-01-15T10:50:56.378Z,10.60
2019-01-15T10:53:26.071Z,10.60
2019-01-15T10:55:55.398Z,10.60
2019-01-15T10:58:24.230Z,10.70
2019-01-15T11:00:52.750Z,10.70
2019-01-15T11:03:21.326Z,10.70
2019-01-15T11:05:49.866Z,10.70
2019-01-15T11:08:18.353Z,10.70
2019-01-15T11:10:47.085Z,10.70
2019-01-15T11:13:15.519Z,10.70
2019-01-15T11:15:43.834Z,10.60
2019-01-15T11:18:12.374Z,10.50
2019-01-15T11:20:40.791Z,10.50
2019-01-15T11:23:09.213Z,10.40
2019-01-15T11:25:37.937Z,10.30
2019-01-15T11:28:06.358Z,10.40
2019-01-15T11:30:34.669Z,10.40
2019-01-15T11:33:03.243Z,10.40
2019-01-15T11:35:31.777Z,10.50
2019-01-15T11:38:00.105Z,10.50
2019-01-15T11:40:28.935Z,10.50
2019-01-15T11:42:57.574Z,10.40
2019-01-15T11:45:25.993Z,10.40
2019-01-15T11:47:54.631Z,10.30
2019-01-15T11:50:23.169Z,10.30
2019-01-15T11:52:51.609Z,10.20
2019-01-15T11:55:21.269Z,10.20
2019-01-15T11:57:51.069Z,10.30
2019-01-15T12:00:33.481Z,10.30
2019-01-15T12:03:27.361Z,10.30
2019-01-15T12:06:21.200Z,10.30
2019-01-15T12:09:15.405Z,10.30
2019-01-15T12:12:06.318Z,10.30
2019-01-15T12:14:58.625Z,10.40
2019-01-15T12:17:43.950Z,10.30
2019-01-15T12:20:31.480Z,10.40
2019-01-15T12:23:34.237Z,10.30
2019-01-15T12:26:30.787Z,10.40
2019-01-15T12:29:17.188Z,10.40
2019-01-15T12:32:23.089Z,10.50
2019-01-15T12:35:16.973Z,10.60
2019-01-15T12:38:19.934Z,10.80
2019-01-15T12:41:07.869Z,11.00
2019-01-15T12:43:51.070Z,11.20
2019-01-15T12:46:54.185Z,11.40
2019-01-15T12:49:43.688Z,11.60
2019-01-15T12:52:37.273Z,11.90
2019-01-15T12:55:28.377Z,13.00
2019-01-15T12:58:15.043Z,14.70
2019-01-15T13:01:15.709Z,16.30
2019-01-15T13:04:07.987Z,17.70
2019-01-15T13:06:54.250Z,19.00
2019-01-15T13:09:51.497Z,20.10
2019-01-15T13:12:45.514Z,20.50
2019-01-15T13:15:38.297Z,20.70
2019-01-15T13:18:28.025Z,20.30
2019-01-15T13:21:14.423Z,19.00
2019-01-15T13:24:02.357Z,17.30
2019-01-15T13:26:53.009Z,15.70
2019-01-15T13:29:46.886Z,14.80
2019-01-15T13:32:27.838Z,15.20
2019-01-15T13:35:30.814Z,15.50
2019-01-15T13:38:17.353Z,15.10
2019-01-15T13:40:57.913Z,14.20
2019-01-15T13:43:54.922Z,13.50
2019-01-15T13:46:35.162Z,12.80
2019-01-15T13:49:23.305Z,12.30
2019-01-15T13:52:10.071Z,12.00
2019-01-15T13:54:56.784Z,11.60
2019-01-15T13:57:44.205Z,11.40
2019-01-15T14:00:43.394Z,11.30
2019-01-15T14:03:49.709Z,11.10
2019-01-15T14:06:40.382Z,11.00
2019-01-15T14:09:27.193Z,10.80
2019-01-15T14:12:16.144Z,10.70
2019-01-15T14:15:02.318Z,10.60
2019-01-15T14:17:48.818Z,10.60
2019-01-15T14:20:45.771Z,10.50
2019-01-15T14:23:36.943Z,10.40
2019-01-15T14:26:25.241Z,10.30
2019-01-15T14:29:19.141Z,10.30
2019-01-15T14:32:05.118Z,10.20
2019-01-15T14:35:04.954Z,10.20
2019-01-15T14:37:52.386Z,10.20
2019-01-15T14:40:41.913Z,10.20
2019-01-15T14:43:28.396Z,10.10
2019-01-15T14:46:14.895Z,10.00
2019-01-15T14:49:09.214Z,10.00
2019-01-15T14:51:55.352Z,10.00
2019-01-15T14:54:41.412Z,10.00
2019-01-15T14:57:27.713Z,9.90
2019-01-15T15:00:19.315Z,9.80
2019-01-15T15:02:59.048Z,9.70
2019-01-15T15:05:43.533Z,9.70
2019-01-15T15:08:31.507Z,9.60
2019-01-15T15:11:17.938Z,9.50
2019-01-15T15:14:08.725Z,9.50
2019-01-15T15:17:11.434Z,9.40
2019-01-15T15:19:55.909Z,9.40
2019-01-15T15:22:38.873Z,9.30
2019-01-15T15:25:41.138Z,9.20
2019-01-15T15:28:29.565Z,9.20
2019-01-15T15:31:23.231Z,9.10
2019-01-15T15:34:13.735Z,9.00
2019-01-15T15:37:07.662Z,9.00
2019-01-15T15:39:53.942Z,8.90
2019-01-15T15:42:47.692Z,8.80
2019-01-15T15:45:38.233Z,8.80
2019-01-15T15:48:26.220Z,8.70
2019-01-15T15:51:28.949Z,8.70
2019-01-15T15:54:15.457Z,8.60
2019-01-15T15:57:08.549Z,8.50
2019-01-15T16:00:04.662Z,8.50
2019-01-15T16:02:56.489Z,8.40
2019-01-15T16:05:43.045Z,8.30
2019-01-15T16:08:30.759Z,8.30
2019-01-15T16:11:17.289Z,8.20
2019-01-15T16:14:02.469Z,8.10
2019-01-15T16:16:51.794Z,8.00
2019-01-15T16:19:37.871Z,8.00
2019-01-15T16:22:28.356Z,7.90
2019-01-15T16:25:21.746Z,7.80
2019-01-15T16:28:21.783Z,7.80
2019-01-15T16:31:13.195Z,7.70
2019-01-15T16:34:00.520Z,7.60
2019-01-15T16:36:54.401Z,7.50
2019-01-15T16:39:49.398Z,7.50
2019-01-15T16:42:36.032Z,7.50
2019-01-15T16:45:25.934Z,7.50
2019-01-15T16:48:08.291Z,7.40
2019-01-15T16:51:06.672Z,7.30
2019-01-15T16:54:03.505Z,7.30
2019-01-15T16:56:58.220Z,7.20
2019-01-15T16:59:51.378Z,7.20
2019-01-15T17:02:36.742Z,7.10
2019-01-15T17:05:23.863Z,7.20
2019-01-15T17:08:20.434Z,7.10
2019-01-15T17:11:08.611Z,7.10
2019-01-15T17:14:08.424Z,7.10
2019-01-15T17:16:59.229Z,7.10
2019-01-15T17:19:47.098Z,7.00
2019-01-15T17:22:35.248Z,7.00
2019-01-15T17:25:22.610Z,7.10
2019-01-15T17:28:13.179Z,7.10
2019-01-15T17:30:59.789Z,7.10
2019-01-15T17:33:53.182Z,7.00
2019-01-15T17:36:44.049Z,7.00
2019-01-15T17:39:40.838Z,7.00
2019-01-15T17:42:24.721Z,7.00
2019-01-15T17:45:30.409Z,7.00
2019-01-15T17:48:20.901Z,6.90
2019-01-15T17:51:08.658Z,6.90
2019-01-15T17:54:08.770Z,6.90
2019-01-15T17:56:58.726Z,6.90
2019-01-15T17:59:45.162Z,6.80
2019-01-15T18:02:32.082Z,6.80
2019-01-15T18:05:18.813Z,6.70
2019-01-15T18:08:24.505Z,6.60
2019-01-15T18:11:11.122Z,6.50
2019-01-15T18:14:03.145Z,6.50
2019-01-15T18:16:49.626Z,6.50
2019-01-15T18:19:35.786Z,6.40
2019-01-15T18:22:26.473Z,6.40
2019-01-15T18:25:20.445Z,6.40
2019-01-15T18:28:08.346Z,6.40
2019-01-15T18:30:45.345Z,6.40
2019-01-15T18:33:32.218Z,6.50
2019-01-15T18:36:18.309Z,6.50
2019-01-15T18:39:12.931Z,6.50
2019-01-15T18:42:15.637Z,6.50
2019-01-15T18:45:06.434Z,6.40
2019-01-15T18:48:03.070Z,6.40
2019-01-15T18:50:56.902Z,6.40
2019-01-15T18:54:02.647Z,6.40
2019-01-15T18:56:47.600Z,6.30
2019-01-15T18:59:44.376Z,6.30
2019-01-15T19:02:41.836Z,6.30
2019-01-15T19:05:32.010Z,6.20
2019-01-15T19:08:22.865Z,6.20
2019-01-15T19:11:16.573Z,6.20
2019-01-15T19:14:03.094Z,6.20
2019-01-15T19:16:47.903Z,6.20
2019-01-15T19:19:24.000Z,6.20
2019-01-15T19:22:23.573Z,6.10
2019-01-15T19:25:11.522Z,6.10
2019-01-15T19:27:59.214Z,6.10
2019-01-15T19:31:05.393Z,6.00
2019-01-15T19:33:47.953Z,6.00
2019-01-15T19:36:34.456Z,5.90
2019-01-15T19:39:22.896Z,5.90
2019-01-15T19:42:13.418Z,5.80
2019-01-15T19:45:01.470Z,5.80
2019-01-15T19:48:02.553Z,5.80
2019-01-15T19:50:50.520Z,5.70
2019-01-15T19:53:36.998Z,5.70
2019-01-15T19:56:27.698Z,5.70
2019-01-15T19:59:18.222Z,5.60
2019-01-15T20:02:12.404Z,5.60
2019-01-15T20:04:58.897Z,5.60
2019-01-15T20:07:47.328Z,5.60
2019-01-15T20:10:35.265Z,5.60
2019-01-15T20:13:23.786Z,5.50
2019-01-15T20:16:11.890Z,5.50
2019-01-15T20:18:59.858Z,5.50
2019-01-15T20:21:42.296Z,5.50
2019-01-15T20:24:25.382Z,5.50
2019-01-15T20:27:32.214Z,5.50
2019-01-15T20:30:27.503Z,5.50
2019-01-15T20:33:31.941Z,5.50
2019-01-15T20:36:19.228Z,5.50
2019-01-15T20:39:09.206Z,5.50
2019-01-15T20:41:57.961Z,5.40
2019-01-15T20:44:48.994Z,5.40
2019-01-15T20:47:52.809Z,5.40
2019-01-15T20:50:46.261Z,5.30
2019-01-15T20:53:40.986Z,5.30
2019-01-15T20:56:23.393Z,5.30
2019-01-15T20:59:09.895Z,5.30
2019-01-15T21:01:59.813Z,5.30
2019-01-15T21:04:43.902Z,5.30
2019-01-15T21:07:37.875Z,5.30
2019-01-15T21:10:31.745Z,5.30
2019-01-15T21:13:15.377Z,5.30
2019-01-15T21:16:00.677Z,5.20
2019-01-15T21:19:01.351Z,5.30
2019-01-15T21:21:55.127Z,5.30
2019-01-15T21:24:49.586Z,5.20
2019-01-15T21:27:45.430Z,5.30
2019-01-15T21:30:50.523Z,5.30
2019-01-15T21:33:33.962Z,5.30
2019-01-15T21:36:20.517Z,5.20
2019-01-15T21:39:06.615Z,5.30
2019-01-15T21:41:52.553Z,5.30
2019-01-15T21:44:38.805Z,5.30
2019-01-15T21:47:44.756Z,5.30
2019-01-15T21:50:25.133Z,5.30
2019-01-15T21:53:16.038Z,5.30
2019-01-15T21:56:09.066Z,5.30
2019-01-15T21:59:15.245Z,5.30
2019-01-15T22:02:15.413Z,5.30
2019-01-15T22:05:03.233Z,5.30
2019-01-15T22:07:54.133Z,5.40
2019-01-15T22:10:56.873Z,5.30
2019-01-15T22:13:38.565Z,5.40
2019-01-15T22:16:22.590Z,5.30
2019-01-15T22:19:16.313Z,5.40
2019-01-15T22:22:04.206Z,5.40
2019-01-15T22:24:50.661Z,5.50
2019-01-15T22:27:53.834Z,5.40
2019-01-15T22:30:44.482Z,5.40
2019-01-15T22:33:30.769Z,5.40
2019-01-15T22:36:24.262Z,5.40
2019-01-15T22:39:10.821Z,5.40
2019-01-15T22:42:10.418Z,5.30
2019-01-15T22:44:56.977Z,5.40
2019-01-15T22:47:54.771Z,5.60
2019-01-15T22:50:30.516Z,5.60
2019-01-15T22:53:22.249Z,5.70
2019-01-15T22:55:58.294Z,5.90
2019-01-15T22:58:51.682Z,6.00
2019-01-15T23:01:37.245Z,6.00
2019-01-15T23:04:16.891Z,5.90
2019-01-15T23:07:03.417Z,5.80
2019-01-15T23:09:40.383Z,5.80
2019-01-15T23:12:30.756Z,5.70
2019-01-15T23:15:17.003Z,5.70
2019-01-15T23:18:07.600Z,5.60
2019-01-15T23:20:53.804Z,5.70
2019-01-15T23:23:41.683Z,5.60
2019-01-15T23:26:36.323Z,5.60
2019-01-15T23:29:24.459Z,5.50
2019-01-15T23:32:10.687Z,5.50
2019-01-15T23:35:04.207Z,5.50
2019-01-15T23:37:59.143Z,5.40
2019-01-15T23:40:42.382Z,5.40
2019-01-15T23:43:33.228Z,5.40
2019-01-15T23:46:30.219Z,5.30
2019-01-15T23:49:16.675Z,5.30
2019-01-15T23:52:05.356Z,5.20
2019-01-15T23:55:03.039Z,5.10
2019-01-15T23:57:49.635Z,5.10
